createdAt,value
2022-09-23T00:00:51.223Z,3.02
2022-09-23T00:01:51.261Z,3.02
2022-09-23T00:02:51.265Z,3.01
2022-09-23T00:03:51.175Z,3.01
2022-09-23T00:04:51.245Z,3.04
2022-09-23T00:05:51.150Z,3.09
2022-09-23T00:06:51.159Z,3.14
2022-09-23T00:07:51.138Z,3.18
2022-09-23T00:08:51.114Z,3.20
2022-09-23T00:09:51.104Z,3.23
2022-09-23T00:10:51.112Z,3.26
2022-09-23T00:11:51.080Z,3.28
2022-09-23T00:12:51.084Z,3.30
2022-09-23T00:13:51.056Z,3.30
2022-09-23T00:14:51.038Z,3.31
2022-09-23T00:15:51.050Z,3.32
2022-09-23T00:16:51.032Z,3.31
2022-09-23T00:17:50.987Z,3.31
2022-09-23T00:18:51.020Z,3.30
2022-09-23T00:19:50.992Z,3.29
2022-09-23T00:20:50.959Z,3.28
2022-09-23T00:21:50.950Z,3.27
2022-09-23T00:22:50.941Z,3.28
2022-09-23T00:23:50.960Z,3.29
2022-09-23T00:24:50.934Z,3.29
2022-09-23T00:25:50.892Z,3.30
2022-09-23T00:26:50.899Z,3.30
2022-09-23T00:27:50.855Z,3.31
2022-09-23T00:28:50.867Z,3.31
2022-09-23T00:29:50.851Z,3.32
2022-09-23T00:30:50.886Z,3.33
2022-09-23T00:31:50.822Z,3.36
2022-09-23T00:32:50.792Z,3.40
2022-09-23T00:33:50.783Z,3.42
2022-09-23T00:34:50.802Z,3.43
2022-09-23T00:35:50.772Z,3.43
2022-09-23T00:36:50.771Z,3.43
2022-09-23T00:37:50.760Z,3.39
2022-09-23T00:38:50.715Z,3.34
2022-09-23T00:39:50.745Z,3.29
2022-09-23T00:40:50.790Z,3.24
2022-09-23T00:41:50.754Z,3.18
2022-09-23T00:42:50.665Z,3.12
2022-09-23T00:43:50.671Z,3.07
2022-09-23T00:44:50.678Z,3.05
2022-09-23T00:45:50.679Z,3.05
2022-09-23T00:46:50.619Z,3.04
2022-09-23T00:47:50.622Z,3.04
2022-09-23T00:48:50.616Z,3.04
2022-09-23T00:49:50.591Z,3.06
2022-09-23T00:50:50.574Z,3.08
2022-09-23T00:51:50.548Z,3.09
2022-09-23T00:52:50.534Z,3.08
2022-09-23T00:53:50.545Z,3.04
2022-09-23T00:54:50.556Z,2.99
2022-09-23T00:55:50.494Z,2.93
2022-09-23T00:56:50.531Z,2.88
2022-09-23T00:57:50.477Z,2.83
2022-09-23T00:58:50.462Z,2.78
2022-09-23T00:59:50.457Z,2.75
2022-09-23T01:00:50.566Z,2.73
2022-09-23T01:01:50.413Z,2.72
2022-09-23T01:02:50.506Z,2.72
2022-09-23T01:03:50.407Z,2.70
2022-09-23T01:04:50.417Z,2.65
2022-09-23T01:05:50.379Z,2.61
2022-09-23T01:06:50.384Z,2.61
2022-09-23T01:07:50.454Z,2.66
2022-09-23T01:08:50.327Z,2.73
2022-09-23T01:09:50.338Z,2.80
2022-09-23T01:10:50.325Z,2.86
2022-09-23T01:11:50.301Z,2.91
2022-09-23T01:12:50.289Z,2.95
2022-09-23T01:13:50.288Z,2.97
2022-09-23T01:14:50.286Z,2.98
2022-09-23T01:15:50.239Z,2.98
2022-09-23T01:16:50.279Z,2.98
2022-09-23T01:17:50.236Z,2.98
2022-09-23T01:18:50.240Z,2.97
2022-09-23T01:19:50.226Z,2.96
2022-09-23T01:20:50.218Z,2.94
2022-09-23T01:21:50.176Z,2.88
2022-09-23T01:22:50.156Z,2.82
2022-09-23T01:23:50.194Z,2.76
2022-09-23T01:24:50.155Z,2.70
2022-09-23T01:25:50.126Z,2.63
2022-09-23T01:26:50.098Z,2.57
2022-09-23T01:27:50.165Z,2.51
2022-09-23T01:28:50.107Z,2.45
2022-09-23T01:29:50.055Z,2.39
2022-09-23T01:30:50.115Z,2.36
2022-09-23T01:31:50.059Z,2.39
2022-09-23T01:32:50.042Z,2.44
2022-09-23T01:33:50.017Z,2.48
2022-09-23T01:34:49.990Z,2.49
2022-09-23T01:35:50.000Z,2.49
2022-09-23T01:36:50.005Z,2.47
2022-09-23T01:37:49.970Z,2.44
2022-09-23T01:38:49.966Z,2.42
2022-09-23T01:39:49.968Z,2.41
2022-09-23T01:40:49.982Z,2.45
2022-09-23T01:41:49.920Z,2.51
2022-09-23T01:42:49.899Z,2.53
2022-09-23T01:43:49.893Z,2.51
2022-09-23T01:44:49.889Z,2.50
2022-09-23T01:45:49.878Z,2.51
2022-09-23T01:46:49.860Z,2.55
2022-09-23T01:47:49.893Z,2.60
2022-09-23T01:48:49.828Z,2.64
2022-09-23T01:49:49.840Z,2.68
2022-09-23T01:50:49.807Z,2.72
2022-09-23T01:51:49.797Z,2.75
2022-09-23T01:52:49.792Z,2.76
2022-09-23T01:53:49.745Z,2.77
2022-09-23T01:54:49.730Z,2.76
2022-09-23T01:55:49.732Z,2.75
2022-09-23T01:56:49.745Z,2.72
2022-09-23T01:57:49.718Z,2.68
2022-09-23T01:58:49.706Z,2.65
2022-09-23T01:59:49.662Z,2.65
2022-09-23T02:00:49.769Z,2.65
2022-09-23T02:01:49.677Z,2.65
2022-09-23T02:02:49.846Z,2.66
2022-09-23T02:03:49.633Z,2.65
2022-09-23T02:04:49.606Z,2.66
2022-09-23T02:05:49.597Z,2.66
2022-09-23T02:06:49.577Z,2.65
2022-09-23T02:07:49.594Z,2.63
2022-09-23T02:08:49.570Z,2.59
2022-09-23T02:09:49.566Z,2.52
2022-09-23T02:10:49.553Z,2.45
2022-09-23T02:11:49.505Z,2.38
2022-09-23T02:12:49.506Z,2.32
2022-09-23T02:13:49.512Z,2.27
2022-09-23T02:14:49.501Z,2.23
2022-09-23T02:15:49.482Z,2.19
2022-09-23T02:16:49.644Z,2.16
2022-09-23T02:17:49.436Z,2.16
2022-09-23T02:18:49.454Z,2.19
2022-09-23T02:19:49.453Z,2.22
2022-09-23T02:20:49.415Z,2.25
2022-09-23T02:21:49.405Z,2.26
2022-09-23T02:22:49.396Z,2.26
2022-09-23T02:23:49.392Z,2.25
2022-09-23T02:24:49.381Z,2.22
2022-09-23T02:25:49.325Z,2.17
2022-09-23T02:26:49.319Z,2.11
2022-09-23T02:27:49.377Z,2.05
2022-09-23T02:28:49.365Z,1.99
2022-09-23T02:29:49.314Z,1.98
2022-09-23T02:30:49.255Z,2.03
2022-09-23T02:31:49.350Z,2.10
2022-09-23T02:32:49.263Z,2.14
2022-09-23T02:33:49.248Z,2.15
2022-09-23T02:34:49.228Z,2.16
2022-09-23T02:35:49.226Z,2.15
2022-09-23T02:36:49.209Z,2.11
2022-09-23T02:37:49.216Z,2.07
2022-09-23T02:38:49.186Z,2.05
2022-09-23T02:39:49.182Z,2.05
2022-09-23T02:40:49.202Z,2.06
2022-09-23T02:41:49.148Z,2.07
2022-09-23T02:42:49.108Z,2.11
2022-09-23T02:43:49.136Z,2.18
2022-09-23T02:44:49.110Z,2.26
2022-09-23T02:45:49.174Z,2.33
2022-09-23T02:46:49.079Z,2.39
2022-09-23T02:47:49.064Z,2.44
2022-09-23T02:48:49.051Z,2.48
2022-09-23T02:49:49.042Z,2.52
2022-09-23T02:50:49.044Z,2.55
2022-09-23T02:51:49.010Z,2.59
2022-09-23T02:52:49.006Z,2.62
2022-09-23T02:53:49.042Z,2.64
2022-09-23T02:54:48.956Z,2.65
2022-09-23T02:55:48.941Z,2.64
2022-09-23T02:56:48.922Z,2.62
2022-09-23T02:57:48.939Z,2.61
2022-09-23T02:58:48.918Z,2.59
2022-09-23T02:59:48.918Z,2.58
2022-09-23T03:00:48.951Z,2.58
2022-09-23T03:01:48.943Z,2.58
2022-09-23T03:02:48.848Z,2.56
2022-09-23T03:03:48.847Z,2.54
2022-09-23T03:04:48.838Z,2.50
2022-09-23T03:05:48.833Z,2.44
2022-09-23T03:06:48.851Z,2.38
2022-09-23T03:07:48.865Z,2.35
2022-09-23T03:08:48.772Z,2.35
2022-09-23T03:09:48.772Z,2.36
2022-09-23T03:10:48.773Z,2.36
2022-09-23T03:11:48.737Z,2.36
2022-09-23T03:12:48.745Z,2.33
2022-09-23T03:13:48.724Z,2.30
2022-09-23T03:14:48.734Z,2.26
2022-09-23T03:15:48.706Z,2.24
2022-09-23T03:16:48.732Z,2.25
2022-09-23T03:17:48.655Z,2.28
2022-09-23T03:18:48.630Z,2.32
2022-09-23T03:19:48.671Z,2.35
2022-09-23T03:20:48.618Z,2.37
2022-09-23T03:21:48.602Z,2.38
2022-09-23T03:22:48.601Z,2.39
2022-09-23T03:23:48.635Z,2.39
2022-09-23T03:24:53.212Z,2.38
2022-09-23T03:25:48.572Z,2.33
2022-09-23T03:26:48.530Z,2.25
2022-09-23T03:27:48.540Z,2.17
2022-09-23T03:28:48.506Z,2.15
2022-09-23T03:29:48.532Z,2.17
2022-09-23T03:30:48.491Z,2.22
2022-09-23T03:31:48.542Z,2.28
2022-09-23T03:32:48.471Z,2.34
2022-09-23T03:33:48.461Z,2.37
2022-09-23T03:34:48.488Z,2.37
2022-09-23T03:35:48.443Z,2.32
2022-09-23T03:36:48.438Z,2.26
2022-09-23T03:37:48.399Z,2.21
2022-09-23T03:38:48.389Z,2.20
2022-09-23T03:39:48.406Z,2.20
2022-09-23T03:40:48.392Z,2.22
2022-09-23T03:41:48.350Z,2.24
2022-09-23T03:42:48.325Z,2.25
2022-09-23T03:43:48.323Z,2.26
2022-09-23T03:44:48.337Z,2.25
2022-09-23T03:45:48.378Z,2.25
2022-09-23T03:46:48.276Z,2.24
2022-09-23T03:47:48.362Z,2.22
2022-09-23T03:48:48.267Z,2.20
2022-09-23T03:49:48.249Z,2.16
2022-09-23T03:50:48.210Z,2.11
2022-09-23T03:51:48.244Z,2.06
2022-09-23T03:52:48.217Z,2.02
2022-09-23T03:53:48.206Z,1.96
2022-09-23T03:54:48.151Z,1.91
2022-09-23T03:55:48.193Z,1.88
2022-09-23T03:56:48.172Z,1.84
2022-09-23T03:57:48.158Z,1.78
2022-09-23T03:58:48.107Z,1.68
2022-09-23T03:59:48.096Z,1.60
2022-09-23T04:00:48.192Z,1.54
2022-09-23T04:01:48.164Z,1.49
2022-09-23T04:02:48.087Z,1.48
2022-09-23T04:03:48.040Z,1.50
2022-09-23T04:04:48.051Z,1.54
2022-09-23T04:05:48.021Z,1.61
2022-09-23T04:06:48.004Z,1.71
2022-09-23T04:07:48.026Z,1.83
2022-09-23T04:08:48.019Z,1.94
2022-09-23T04:09:47.996Z,2.03
2022-09-23T04:10:51.717Z,2.08
2022-09-23T04:11:47.966Z,2.11
2022-09-23T04:12:47.921Z,2.10
2022-09-23T04:13:47.936Z,2.07
2022-09-23T04:14:47.903Z,1.99
2022-09-23T04:15:47.915Z,1.90
2022-09-23T04:16:47.945Z,1.82
2022-09-23T04:17:47.880Z,1.77
2022-09-23T04:18:47.866Z,1.76
2022-09-23T04:19:47.858Z,1.76
2022-09-23T04:20:47.848Z,1.77
2022-09-23T04:21:47.837Z,1.81
2022-09-23T04:22:47.809Z,1.85
2022-09-23T04:23:47.791Z,1.89
2022-09-23T04:24:47.784Z,1.91
2022-09-23T04:25:47.772Z,1.91
2022-09-23T04:26:49.027Z,1.91
2022-09-23T04:27:48.868Z,1.89
2022-09-23T04:28:47.712Z,1.87
2022-09-23T04:29:47.720Z,1.84
2022-09-23T04:30:47.700Z,1.82
2022-09-23T04:31:47.905Z,1.82
2022-09-23T04:32:47.666Z,1.82
2022-09-23T04:33:47.653Z,1.82
2022-09-23T04:34:47.642Z,1.82
2022-09-23T04:35:47.619Z,1.83
2022-09-23T04:36:47.599Z,1.85
2022-09-23T04:37:47.640Z,1.87
2022-09-23T04:38:47.574Z,1.88
2022-09-23T04:39:47.562Z,1.89
2022-09-23T04:40:47.607Z,1.89
2022-09-23T04:41:47.554Z,1.87
2022-09-23T04:42:47.525Z,1.83
2022-09-23T04:43:47.562Z,1.79
2022-09-23T04:44:47.520Z,1.73
2022-09-23T04:45:47.496Z,1.66
2022-09-23T04:46:47.572Z,1.64
2022-09-23T04:47:47.491Z,1.65
2022-09-23T04:48:47.443Z,1.70
2022-09-23T04:49:47.498Z,1.74
2022-09-23T04:50:47.413Z,1.75
2022-09-23T04:51:47.432Z,1.73
2022-09-23T04:52:47.410Z,1.68
2022-09-23T04:53:47.392Z,1.62
2022-09-23T04:54:47.390Z,1.54
2022-09-23T04:55:47.393Z,1.46
2022-09-23T04:56:47.374Z,1.46
2022-09-23T04:57:47.357Z,1.53
2022-09-23T04:58:47.312Z,1.61
2022-09-23T04:59:47.364Z,1.67
2022-09-23T05:00:47.372Z,1.70
2022-09-23T05:01:47.333Z,1.70
2022-09-23T05:02:47.285Z,1.70
2022-09-23T05:03:47.264Z,1.73
2022-09-23T05:04:47.239Z,1.75
2022-09-23T05:05:47.260Z,1.76
2022-09-23T05:06:47.215Z,1.76
2022-09-23T05:07:47.200Z,1.74
2022-09-23T05:08:47.201Z,1.76
2022-09-23T05:09:47.167Z,1.80
2022-09-23T05:10:47.186Z,1.83
2022-09-23T05:11:47.166Z,1.85
2022-09-23T05:12:47.163Z,1.84
2022-09-23T05:13:47.139Z,1.81
2022-09-23T05:14:47.098Z,1.77
2022-09-23T05:15:47.122Z,1.75
2022-09-23T05:16:47.094Z,1.75
2022-09-23T05:17:47.084Z,1.75
2022-09-23T05:18:47.109Z,1.75
2022-09-23T05:19:47.070Z,1.74
2022-09-23T05:20:47.037Z,1.72
2022-09-23T05:21:47.044Z,1.70
2022-09-23T05:22:46.993Z,1.71
2022-09-23T05:23:47.005Z,1.75
2022-09-23T05:24:46.986Z,1.81
2022-09-23T05:25:46.958Z,1.84
2022-09-23T05:26:46.962Z,1.85
2022-09-23T05:27:46.934Z,1.85
2022-09-23T05:28:46.910Z,1.87
2022-09-23T05:29:46.905Z,1.89
2022-09-23T05:30:46.890Z,1.92
2022-09-23T05:31:46.964Z,1.93
2022-09-23T05:32:46.860Z,1.96
2022-09-23T05:33:46.853Z,2.01
2022-09-23T05:34:46.833Z,2.06
2022-09-23T05:35:46.843Z,2.10
2022-09-23T05:36:46.866Z,2.12
2022-09-23T05:37:46.829Z,2.14
2022-09-23T05:38:46.805Z,2.16
2022-09-23T05:39:46.787Z,2.19
2022-09-23T05:40:46.795Z,2.20
2022-09-23T05:41:46.781Z,2.22
2022-09-23T05:42:46.747Z,2.23
2022-09-23T05:43:46.763Z,2.23
2022-09-23T05:44:46.733Z,2.23
2022-09-23T05:45:46.698Z,2.25
2022-09-23T05:46:46.700Z,2.26
2022-09-23T05:47:46.691Z,2.28
2022-09-23T05:48:46.644Z,2.31
2022-09-23T05:49:59.096Z,2.38
2022-09-23T05:50:46.643Z,2.47
2022-09-23T05:51:46.691Z,2.56
2022-09-23T05:52:46.599Z,2.64
2022-09-23T05:53:46.613Z,2.69
2022-09-23T05:54:46.569Z,2.71
2022-09-23T05:55:46.604Z,2.74
2022-09-23T05:56:46.552Z,2.76
2022-09-23T05:57:46.550Z,2.84
2022-09-23T05:58:46.513Z,2.95
2022-09-23T05:59:46.548Z,3.05
2022-09-23T06:00:46.490Z,3.16
2022-09-23T06:01:46.600Z,3.29
2022-09-23T06:02:46.540Z,3.40
2022-09-23T06:03:46.481Z,3.51
2022-09-23T06:04:46.466Z,3.59
2022-09-23T06:05:46.437Z,3.64
2022-09-23T06:06:46.436Z,3.66
2022-09-23T06:07:46.438Z,3.67
2022-09-23T06:08:46.427Z,3.69
2022-09-23T06:09:46.399Z,3.74
2022-09-23T06:10:47.863Z,3.81
2022-09-23T06:11:46.386Z,3.90
2022-09-23T06:12:46.362Z,4.05
2022-09-23T06:13:46.335Z,4.21
2022-09-23T06:14:46.304Z,4.34
2022-09-23T06:15:46.389Z,4.41
2022-09-23T06:16:46.321Z,4.45
2022-09-23T06:17:46.287Z,4.48
2022-09-23T06:18:46.272Z,4.52
2022-09-23T06:19:46.270Z,4.55
2022-09-23T06:20:46.253Z,4.57
2022-09-23T06:21:46.247Z,4.61
2022-09-23T06:22:46.758Z,4.64
2022-09-23T06:23:46.193Z,4.67
2022-09-23T06:24:46.175Z,4.70
2022-09-23T06:25:46.171Z,4.75
2022-09-23T06:26:46.169Z,4.82
2022-09-23T06:27:46.156Z,4.90
2022-09-23T06:28:46.184Z,4.96
2022-09-23T06:29:46.124Z,5.01
2022-09-23T06:30:46.119Z,5.06
2022-09-23T06:31:46.189Z,5.11
2022-09-23T06:32:46.108Z,5.15
2022-09-23T06:33:46.107Z,5.18
2022-09-23T06:34:51.518Z,5.20
2022-09-23T06:35:55.853Z,5.21
2022-09-23T06:36:46.743Z,5.23
2022-09-23T06:37:46.013Z,5.27
2022-09-23T06:38:46.028Z,5.31
2022-09-23T06:39:45.990Z,5.35
2022-09-23T06:40:46.022Z,5.38
2022-09-23T06:41:45.965Z,5.42
2022-09-23T06:42:49.042Z,5.47
2022-09-23T06:43:45.944Z,5.52
2022-09-23T06:44:45.978Z,5.58
2022-09-23T06:45:45.906Z,5.64
2022-09-23T06:46:45.923Z,5.70
2022-09-23T06:47:45.897Z,5.77
2022-09-23T06:48:46.440Z,5.85
2022-09-23T06:49:45.867Z,5.94
2022-09-23T06:50:45.863Z,6.05
2022-09-23T06:51:45.841Z,6.17
2022-09-23T06:52:45.852Z,6.31
2022-09-23T06:53:45.815Z,6.45
2022-09-23T06:54:45.846Z,6.56
2022-09-23T06:55:45.792Z,6.65
2022-09-23T06:56:45.773Z,6.72
2022-09-23T06:57:45.778Z,6.78
2022-09-23T06:58:45.757Z,6.84
2022-09-23T06:59:45.738Z,6.91
2022-09-23T07:00:45.731Z,6.98
2022-09-23T07:01:45.830Z,7.05
2022-09-23T07:02:45.851Z,7.08
2022-09-23T07:03:45.693Z,7.10
2022-09-23T07:04:45.688Z,7.11
2022-09-23T07:05:45.651Z,7.11
2022-09-23T07:06:45.668Z,7.12
2022-09-23T07:07:45.633Z,7.15
2022-09-23T07:08:45.635Z,7.20
2022-09-23T07:09:45.602Z,7.25
2022-09-23T07:10:45.635Z,7.30
2022-09-23T07:11:45.601Z,7.36
2022-09-23T07:12:45.561Z,7.42
2022-09-23T07:13:45.564Z,7.48
2022-09-23T07:14:45.562Z,7.54
2022-09-23T07:15:45.544Z,7.59
2022-09-23T07:16:45.551Z,7.63
2022-09-23T07:17:45.517Z,7.68
2022-09-23T07:18:45.516Z,7.73
2022-09-23T07:19:45.478Z,7.80
2022-09-23T07:20:45.452Z,7.87
2022-09-23T07:21:45.497Z,7.94
2022-09-23T07:22:45.431Z,8.00
2022-09-23T07:23:45.445Z,8.07
2022-09-23T07:24:45.400Z,8.15
2022-09-23T07:25:45.382Z,8.24
2022-09-23T07:26:45.844Z,8.33
2022-09-23T07:27:45.354Z,8.39
2022-09-23T07:28:45.345Z,8.43
2022-09-23T07:29:48.759Z,8.47
2022-09-23T07:30:56.693Z,8.51
2022-09-23T07:31:45.373Z,8.56
2022-09-23T07:32:48.925Z,8.61
2022-09-23T07:33:45.294Z,8.67
2022-09-23T07:34:45.263Z,8.72
2022-09-23T07:35:45.263Z,8.75
2022-09-23T07:36:45.273Z,8.77
2022-09-23T07:37:45.221Z,8.76
2022-09-23T07:38:45.890Z,8.78
2022-09-23T07:39:45.215Z,8.84
2022-09-23T07:40:45.262Z,8.93
2022-09-23T07:41:45.204Z,9.02
2022-09-23T07:42:45.207Z,9.10
2022-09-23T07:43:45.185Z,9.12
2022-09-23T07:44:45.178Z,9.12
2022-09-23T07:45:45.146Z,9.17
2022-09-23T07:46:45.208Z,9.24
2022-09-23T07:47:45.160Z,9.34
2022-09-23T07:48:45.135Z,9.43
2022-09-23T07:49:45.109Z,9.46
2022-09-23T07:50:45.144Z,9.48
2022-09-23T07:51:45.075Z,9.57
2022-09-23T07:52:45.110Z,9.68
2022-09-23T07:53:45.043Z,9.79
2022-09-23T07:54:45.085Z,9.88
2022-09-23T07:55:45.027Z,9.94
2022-09-23T07:56:45.151Z,9.98
2022-09-23T07:57:44.998Z,10.04
2022-09-23T07:58:45.021Z,10.11
2022-09-23T07:59:44.982Z,10.20
2022-09-23T08:00:44.958Z,10.30
2022-09-23T08:01:44.983Z,10.37
2022-09-23T08:02:48.391Z,10.42
2022-09-23T08:03:44.907Z,10.44
2022-09-23T08:04:44.897Z,10.48
2022-09-23T08:05:44.853Z,10.56
2022-09-23T08:06:44.872Z,10.65
2022-09-23T08:07:44.829Z,10.71
2022-09-23T08:08:44.834Z,10.77
2022-09-23T08:09:44.825Z,10.82
2022-09-23T08:10:44.820Z,10.84
2022-09-23T08:11:44.783Z,10.89
2022-09-23T08:12:44.765Z,10.97
2022-09-23T08:13:44.791Z,11.08
2022-09-23T08:14:44.746Z,11.20
2022-09-23T08:15:44.839Z,11.23
2022-09-23T08:16:44.725Z,11.19
2022-09-23T08:17:44.696Z,11.19
2022-09-23T08:18:44.754Z,11.21
2022-09-23T08:19:44.683Z,11.26
2022-09-23T08:20:47.100Z,11.39
2022-09-23T08:21:44.661Z,11.49
2022-09-23T08:22:44.656Z,11.54
2022-09-23T08:23:44.649Z,11.58
2022-09-23T08:24:44.607Z,11.64
2022-09-23T08:25:46.603Z,11.71
2022-09-23T08:26:44.595Z,11.75
2022-09-23T08:27:44.585Z,11.79
2022-09-23T08:28:44.607Z,11.82
2022-09-23T08:29:44.579Z,11.87
2022-09-23T08:30:44.659Z,11.92
2022-09-23T08:31:44.590Z,12.01
2022-09-23T08:32:44.527Z,12.17
2022-09-23T08:33:44.485Z,12.34
2022-09-23T08:34:44.496Z,12.51
2022-09-23T08:35:44.486Z,12.66
2022-09-23T08:36:44.491Z,12.86
2022-09-23T08:37:44.427Z,13.15
2022-09-23T08:38:44.439Z,13.54
2022-09-23T08:39:44.437Z,13.82
2022-09-23T08:40:44.513Z,13.94
2022-09-23T08:41:44.465Z,14.10
2022-09-23T08:42:44.459Z,14.26
2022-09-23T08:43:44.374Z,14.46
2022-09-23T08:44:44.370Z,14.73
2022-09-23T08:45:44.378Z,14.92
2022-09-23T08:46:44.353Z,15.04
2022-09-23T08:47:44.346Z,15.08
2022-09-23T08:48:44.391Z,15.09
2022-09-23T08:49:44.309Z,15.02
2022-09-23T08:50:44.305Z,14.98
2022-09-23T08:51:44.244Z,15.06
2022-09-23T08:52:44.249Z,14.99
2022-09-23T08:53:44.234Z,14.80
2022-09-23T08:54:44.233Z,14.65
2022-09-23T08:55:44.191Z,14.62
2022-09-23T08:56:44.200Z,14.78
2022-09-23T08:57:44.182Z,14.92
2022-09-23T08:58:44.174Z,14.89
2022-09-23T08:59:44.163Z,14.92
2022-09-23T09:00:44.169Z,14.98
2022-09-23T09:01:44.192Z,15.07
2022-09-23T09:02:44.196Z,15.18
2022-09-23T09:03:44.080Z,15.21
2022-09-23T09:04:44.097Z,15.26
2022-09-23T09:05:53.737Z,15.39
2022-09-23T09:06:52.841Z,15.46
2022-09-23T09:07:44.115Z,15.55
2022-09-23T09:08:44.051Z,15.61
2022-09-23T09:09:44.026Z,15.45
2022-09-23T09:10:44.049Z,15.20
2022-09-23T09:11:47.910Z,14.96
2022-09-23T09:12:43.991Z,14.72
2022-09-23T09:13:44.175Z,14.60
2022-09-23T09:14:43.975Z,14.52
2022-09-23T09:15:43.971Z,14.57
2022-09-23T09:16:58.977Z,14.75
2022-09-23T09:17:43.927Z,14.99
2022-09-23T09:18:43.910Z,15.38
2022-09-23T09:19:43.895Z,15.88
2022-09-23T09:20:43.903Z,16.16
2022-09-23T09:21:43.854Z,16.08
2022-09-23T09:22:43.875Z,16.01
2022-09-23T09:23:43.867Z,16.12
2022-09-23T09:24:44.492Z,16.22
2022-09-23T09:25:43.906Z,16.30
2022-09-23T09:26:43.825Z,16.41
2022-09-23T09:27:43.809Z,16.54
2022-09-23T09:28:43.784Z,16.67
2022-09-23T09:29:43.998Z,16.75
2022-09-23T09:30:48.211Z,16.87
2022-09-23T09:31:43.737Z,17.04
2022-09-23T09:32:43.741Z,17.28
2022-09-23T09:33:43.743Z,17.35
2022-09-23T09:34:43.719Z,17.11
2022-09-23T09:35:43.743Z,16.82
2022-09-23T09:36:43.729Z,16.61
2022-09-23T09:37:43.633Z,16.71
2022-09-23T09:38:43.634Z,17.23
2022-09-23T09:39:43.621Z,17.79
2022-09-23T09:40:43.661Z,17.86
2022-09-23T09:41:43.614Z,17.64
2022-09-23T09:42:43.610Z,17.39
2022-09-23T09:43:44.373Z,17.37
2022-09-23T09:44:43.583Z,17.66
2022-09-23T09:45:43.564Z,18.03
2022-09-23T09:46:43.676Z,18.20
2022-09-23T09:47:43.749Z,18.04
2022-09-23T09:48:43.525Z,17.54
2022-09-23T09:49:43.538Z,17.00
2022-09-23T09:50:43.589Z,16.76
2022-09-23T09:51:43.477Z,16.73
2022-09-23T09:52:46.408Z,16.91
2022-09-23T09:53:43.404Z,17.19
2022-09-23T09:54:43.367Z,17.39
2022-09-23T09:55:43.378Z,17.58
2022-09-23T09:56:43.387Z,17.88
2022-09-23T09:57:43.353Z,18.24
2022-09-23T09:58:43.363Z,18.65
2022-09-23T09:59:43.324Z,19.05
2022-09-23T10:00:43.338Z,19.16
2022-09-23T10:01:43.339Z,18.95
2022-09-23T10:02:43.297Z,18.85
2022-09-23T10:03:43.286Z,18.85
2022-09-23T10:04:43.291Z,18.71
2022-09-23T10:05:43.251Z,18.24
2022-09-23T10:06:43.243Z,17.67
2022-09-23T10:07:43.227Z,17.40
2022-09-23T10:08:43.253Z,17.49
2022-09-23T10:09:43.223Z,17.55
2022-09-23T10:10:43.253Z,17.29
2022-09-23T10:11:43.150Z,17.25
2022-09-23T10:12:43.156Z,17.62
2022-09-23T10:13:43.137Z,18.05
2022-09-23T10:14:43.116Z,18.22
2022-09-23T10:15:44.864Z,18.33
2022-09-23T10:16:43.219Z,18.51
2022-09-23T10:17:43.064Z,18.56
2022-09-23T10:18:43.076Z,18.53
2022-09-23T10:19:43.056Z,18.31
2022-09-23T10:20:43.032Z,18.04
2022-09-23T10:21:43.028Z,17.86
2022-09-23T10:22:43.038Z,17.64
2022-09-23T10:23:43.033Z,17.55
2022-09-23T10:24:43.054Z,17.60
2022-09-23T10:25:42.985Z,17.57
2022-09-23T10:26:42.996Z,17.43
2022-09-23T10:27:42.953Z,17.30
2022-09-23T10:28:42.964Z,17.25
2022-09-23T10:29:42.924Z,17.24
2022-09-23T10:30:42.942Z,17.32
2022-09-23T10:31:42.912Z,17.63
2022-09-23T10:32:42.886Z,18.08
2022-09-23T10:33:42.887Z,18.46
2022-09-23T10:34:42.893Z,18.64
2022-09-23T10:35:42.857Z,18.65
2022-09-23T10:36:44.583Z,18.55
2022-09-23T10:37:42.826Z,18.42
2022-09-23T10:38:42.851Z,18.40
2022-09-23T10:39:42.789Z,18.50
2022-09-23T10:40:42.950Z,18.68
2022-09-23T10:41:42.815Z,18.89
2022-09-23T10:42:42.763Z,19.18
2022-09-23T10:43:42.767Z,19.63
2022-09-23T10:44:42.759Z,19.94
2022-09-23T10:45:43.419Z,20.03
2022-09-23T10:46:42.791Z,20.10
2022-09-23T10:47:42.721Z,20.16
2022-09-23T10:48:42.723Z,20.08
2022-09-23T10:49:42.684Z,19.83
2022-09-23T10:50:42.677Z,19.41
2022-09-23T10:51:42.661Z,18.86
2022-09-23T10:52:42.630Z,18.40
2022-09-23T10:53:42.643Z,18.20
2022-09-23T10:54:42.607Z,18.16
2022-09-23T10:55:42.621Z,18.14
2022-09-23T10:56:42.587Z,18.07
2022-09-23T10:57:42.608Z,18.18
2022-09-23T10:58:42.561Z,18.35
2022-09-23T10:59:42.549Z,18.58
2022-09-23T11:00:42.562Z,18.83
2022-09-23T11:01:42.567Z,19.09
2022-09-23T11:02:42.522Z,19.40
2022-09-23T11:03:42.494Z,19.61
2022-09-23T11:04:42.533Z,19.54
2022-09-23T11:05:42.489Z,19.37
2022-09-23T11:06:42.485Z,19.33
2022-09-23T11:07:42.445Z,19.47
2022-09-23T11:08:42.468Z,19.70
2022-09-23T11:09:42.433Z,19.89
2022-09-23T11:10:46.077Z,20.04
2022-09-23T11:11:42.422Z,20.24
2022-09-23T11:12:42.397Z,20.41
2022-09-23T11:13:42.409Z,20.52
2022-09-23T11:14:42.395Z,20.36
2022-09-23T11:15:42.348Z,20.11
2022-09-23T11:16:42.414Z,19.82
2022-09-23T11:17:42.335Z,19.54
2022-09-23T11:18:42.333Z,19.11
2022-09-23T11:19:45.604Z,18.66
2022-09-23T11:20:42.280Z,18.47
2022-09-23T11:21:42.272Z,18.56
2022-09-23T11:22:42.261Z,18.78
2022-09-23T11:23:42.313Z,18.92
2022-09-23T11:24:42.246Z,18.92
2022-09-23T11:25:42.244Z,18.58
2022-09-23T11:26:42.215Z,17.93
2022-09-23T11:27:42.241Z,17.48
2022-09-23T11:28:42.182Z,17.43
2022-09-23T11:29:42.176Z,17.60
2022-09-23T11:30:42.222Z,17.74
2022-09-23T11:31:42.160Z,17.81
2022-09-23T11:32:42.130Z,17.87
2022-09-23T11:33:42.121Z,18.04
2022-09-23T11:34:42.124Z,18.27
2022-09-23T11:35:42.113Z,18.40
2022-09-23T11:36:42.124Z,18.53
2022-09-23T11:37:42.079Z,18.72
2022-09-23T11:38:42.057Z,18.81
2022-09-23T11:39:42.088Z,18.79
2022-09-23T11:40:45.571Z,18.74
2022-09-23T11:41:42.040Z,18.71
2022-09-23T11:42:42.019Z,18.47
2022-09-23T11:43:42.014Z,18.21
2022-09-23T11:44:42.013Z,18.25
2022-09-23T11:45:42.037Z,18.44
2022-09-23T11:46:41.948Z,18.73
2022-09-23T11:47:41.962Z,18.89
2022-09-23T11:48:41.938Z,18.88
2022-09-23T11:49:41.956Z,18.97
2022-09-23T11:50:41.976Z,19.17
2022-09-23T11:51:41.907Z,19.33
2022-09-23T11:52:41.921Z,19.23
2022-09-23T11:53:41.870Z,18.93
2022-09-23T11:54:41.870Z,18.77
2022-09-23T11:55:51.974Z,18.81
2022-09-23T11:56:45.914Z,18.87
2022-09-23T11:57:49.131Z,18.80
2022-09-23T11:58:43.164Z,18.57
2022-09-23T11:59:41.848Z,18.37
2022-09-23T12:00:44.313Z,18.37
2022-09-23T12:01:45.386Z,18.54
2022-09-23T12:02:42.048Z,18.75
2022-09-23T12:03:44.739Z,18.82
2022-09-23T12:04:52.411Z,18.97
2022-09-23T12:05:41.882Z,19.36
2022-09-23T12:06:41.711Z,19.80
2022-09-23T12:07:41.710Z,20.08
2022-09-23T12:08:41.704Z,20.24
2022-09-23T12:09:57.741Z,20.19
2022-09-23T12:10:41.674Z,19.99
2022-09-23T12:11:41.647Z,19.54
2022-09-23T12:12:41.649Z,18.93
2022-09-23T12:13:41.628Z,18.57
2022-09-23T12:14:41.596Z,18.51
2022-09-23T12:15:41.634Z,18.44
2022-09-23T12:16:41.602Z,18.36
2022-09-23T12:17:41.636Z,18.56
2022-09-23T12:18:41.598Z,18.80
2022-09-23T12:19:41.555Z,18.81
2022-09-23T12:20:41.555Z,18.91
2022-09-23T12:21:56.880Z,19.10
2022-09-23T12:22:41.542Z,19.30
2022-09-23T12:23:41.505Z,19.48
2022-09-23T12:24:41.487Z,19.57
2022-09-23T12:25:41.520Z,19.69
2022-09-23T12:26:41.471Z,20.02
2022-09-23T12:27:41.499Z,20.41
2022-09-23T12:28:41.480Z,20.69
2022-09-23T12:29:41.471Z,20.89
2022-09-23T12:30:41.480Z,20.96
2022-09-23T12:31:43.083Z,20.92
2022-09-23T12:32:41.441Z,20.88
2022-09-23T12:33:41.399Z,20.86
2022-09-23T12:34:41.393Z,20.53
2022-09-23T12:35:41.365Z,20.00
2022-09-23T12:36:41.348Z,19.59
2022-09-23T12:37:41.327Z,19.22
2022-09-23T12:38:41.325Z,18.82
2022-09-23T12:39:41.317Z,18.56
2022-09-23T12:40:41.329Z,18.27
2022-09-23T12:41:41.298Z,18.05
2022-09-23T12:42:41.249Z,17.96
2022-09-23T12:43:41.273Z,18.11
2022-09-23T12:44:41.304Z,18.53
2022-09-23T12:45:41.334Z,18.93
2022-09-23T12:46:41.191Z,19.29
2022-09-23T12:47:41.201Z,19.70
2022-09-23T12:48:41.196Z,20.21
2022-09-23T12:49:41.179Z,20.83
2022-09-23T12:50:41.162Z,21.43
2022-09-23T12:51:41.154Z,21.86
2022-09-23T12:52:41.128Z,22.01
2022-09-23T12:53:41.125Z,22.00
2022-09-23T12:54:41.114Z,21.84
2022-09-23T12:55:41.092Z,21.59
2022-09-23T12:56:41.091Z,21.37
2022-09-23T12:57:41.057Z,21.39
2022-09-23T12:58:41.065Z,21.68
2022-09-23T12:59:41.034Z,21.99
2022-09-23T13:00:41.014Z,22.32
2022-09-23T13:01:41.180Z,22.50
2022-09-23T13:02:41.037Z,22.36
2022-09-23T13:03:40.991Z,22.12
2022-09-23T13:04:40.959Z,22.03
2022-09-23T13:05:40.982Z,21.70
2022-09-23T13:06:40.929Z,20.92
2022-09-23T13:07:41.011Z,20.27
2022-09-23T13:08:40.920Z,20.08